Time;durP1;ratioP1;P1;durP2;ratioP2;P2;SDS_P1;SDS_P2;PMS_P1;PMS_P2;Temp;Humidity;BMP_temperature;BMP_pressure;BME280_temperature;BME280_humidity;BME280_pressure;Samples;Min_cycle;Max_cycle;Signal;HPM_P1;HPM_P2
2023/03/14 00:00:22;;;;;;;8.70;2.55;;;;;;;9.79;100.00;98959.88;6277067;22;20086;-73
2023/03/14 00:02:54;;;;;;;6.45;1.98;;;;;;;9.75;100.00;98958.53;6277049;22;20337;-75
2023/03/14 00:05:19;;;;;;;9.07;2.25;;;;;;;9.76;100.00;98973.84;6277327;22;20075;-74
2023/03/14 00:07:44;;;;;;;7.93;2.08;;;;;;;9.79;100.00;98970.19;6277020;22;20027;-74
2023/03/14 00:10:13;;;;;;;5.68;1.92;;;;;;;9.75;100.00;98964.50;6277250;22;20381;-75
2023/03/14 00:12:39;;;;;;;5.68;1.90;;;;;;;9.76;100.00;98960.16;6277025;22;20004;-73
2023/03/14 00:15:06;;;;;;;9.18;1.90;;;;;;;9.80;100.00;98971.00;6277538;22;20010;-74
2023/03/14 00:17:32;;;;;;;7.28;2.05;;;;;;;9.67;100.00;98940.34;6277103;22;20185;-73
2023/03/14 00:20:07;;;;;;;8.80;2.00;;;;;;;9.67;100.00;98945.50;6276895;22;20010;-74
2023/03/14 00:22:34;;;;;;;10.80;2.70;;;;;;;9.64;100.00;98938.06;6276913;22;20004;-75
2023/03/14 00:24:59;;;;;;;10.00;2.33;;;;;;;9.70;100.00;98956.34;6276878;22;20000;-74
2023/03/14 00:27:25;;;;;;;6.43;1.67;;;;;;;9.49;99.79;98932.50;6277032;22;20000;-76
2023/03/14 00:29:50;;;;;;;10.40;2.00;;;;;;;9.75;98.99;98974.81;6249862;22;20008;-75
2023/03/14 00:32:16;;;;;;;7.60;2.00;;;;;;;9.75;98.56;98984.31;6277102;22;20004;-76
2023/03/14 00:34:41;;;;;;;9.05;2.00;;;;;;;9.53;96.70;98944.13;6277065;22;20008;-77
2023/03/14 00:37:07;;;;;;;8.35;1.90;;;;;;;9.80;96.17;98978.72;6276765;22;20000;-76
2023/03/14 00:39:32;;;;;;;7.28;2.33;;;;;;;9.58;95.69;98944.56;6276764;22;20443;-76
2023/03/14 00:41:58;;;;;;;10.32;2.13;;;;;;;9.76;95.08;98976.44;6277220;22;20027;-75
2023/03/14 00:44:23;;;;;;;8.65;1.40;;;;;;;9.70;95.01;98956.34;6277236;22;20110;-76
2023/03/14 00:46:48;;;;;;;8.27;1.58;;;;;;;9.86;94.70;98980.78;6277028;22;20094;-75
2023/03/14 00:49:14;;;;;;;8.15;1.60;;;;;;;9.78;93.68;98973.72;6276946;22;20399;-75
2023/03/14 00:51:39;;;;;;;8.35;2.03;;;;;;;9.85;93.31;98986.88;6276687;22;20094;-74
2023/03/14 00:54:04;;;;;;;11.85;1.98;;;;;;;9.83;92.55;98989.56;6276985;22;20056;-76
2023/03/14 00:56:30;;;;;;;7.97;1.98;;;;;;;9.83;93.15;98989.56;6276999;22;20007;-75
2023/03/14 00:58:56;;;;;;;8.02;2.00;;;;;;;9.68;93.06;98958.25;6276759;22;20042;-77
2023/03/14 01:01:21;;;;;;;9.07;1.52;;;;;;;9.79;93.88;98993.38;6276198;22;20021;-74
2023/03/14 01:03:47;;;;;;;6.95;1.48;;;;;;;9.76;93.21;98973.03;6276428;22;19999;-75
2023/03/14 01:06:14;;;;;;;7.72;2.10;;;;;;;9.76;92.75;98971.28;6276496;22;20073;-74
2023/03/14 01:08:39;;;;;;;12.52;1.88;;;;;;;9.72;92.63;98980.22;6276522;22;19999;-77
2023/03/14 01:11:15;;;;;;;7.55;1.50;;;;;;;9.66;93.17;98975.63;6276202;22;20000;-76
2023/03/14 01:13:40;;;;;;;11.02;1.90;;;;;;;9.63;92.83;98975.88;6276927;22;20329;-75
2023/03/14 01:16:09;;;;;;;8.35;1.85;;;;;;;9.43;92.48;98941.56;6276913;22;20000;-75
2023/03/14 01:18:35;;;;;;;12.07;2.85;;;;;;;9.63;93.62;98975.88;6276317;22;20035;-75
2023/03/14 01:21:01;;;;;;;9.00;2.03;;;;;;;9.55;95.03;98982.69;6276264;22;20788;-74
2023/03/14 01:23:27;;;;;;;8.40;1.58;;;;;;;9.48;95.61;98972.91;6276621;22;20368;-75
2023/03/14 01:25:52;;;;;;;10.52;2.00;;;;;;;9.48;94.77;98966.94;6276174;22;20008;-75
2023/03/14 01:28:18;;;;;;;10.00;2.00;;;;;;;9.49;94.65;98968.56;6276550;22;20000;-75
2023/03/14 01:30:43;;;;;;;7.63;1.30;;;;;;;9.34;94.04;98938.97;6276486;22;20448;-75
2023/03/14 01:33:08;;;;;;;8.13;1.75;;;;;;;9.52;93.64;98965.69;6249110;22;20098;-75
2023/03/14 01:35:33;;;;;;;7.82;1.67;;;;;;;9.52;92.61;98952.00;6276589;22;20004;-77
2023/03/14 01:37:59;;;;;;;8.18;1.60;;;;;;;9.50;92.63;98949.56;6275900;22;20117;-76
2023/03/14 01:40:24;;;;;;;7.55;1.30;;;;;;;9.60;93.51;98952.97;6276267;22;20012;-75
2023/03/14 01:42:57;;;;;;;8.80;1.63;;;;;;;9.58;93.77;98951.47;6276430;22;20000;-77
2023/03/14 01:46:00;;;;;;;4.72;1.15;;;;;;;9.57;93.06;98953.25;6276142;22;20440;-75
2023/03/14 01:48:30;;;;;;;7.05;1.38;;;;;;;9.56;92.54;98948.22;6276145;22;20008;-74
2023/03/14 01:50:56;;;;;;;7.43;1.50;;;;;;;9.40;92.30;98908.34;6276536;22;20010;-75
2023/03/14 01:53:24;;;;;;;8.65;1.73;;;;;;;9.57;93.25;98939.53;6275755;22;20004;-75
2023/03/14 01:55:52;;;;;;;8.32;1.90;;;;;;;9.57;93.11;98934.38;6275829;22;20413;-76
2023/03/14 01:58:19;;;;;;;6.00;1.48;;;;;;;9.49;92.58;98917.84;6276239;22;20026;-75
2023/03/14 02:00:45;;;;;;;6.28;1.13;;;;;;;9.55;93.91;98936.28;6275876;22;20046;-74
2023/03/14 02:03:15;;;;;;;9.55;1.92;;;;;;;9.45;95.73;98929.38;6275945;22;20035;-74
2023/03/14 02:05:42;;;;;;;6.07;1.33;;;;;;;9.35;96.97;98931.16;6275988;22;20007;-75
2023/03/14 02:08:14;;;;;;;7.68;1.67;;;;;;;9.29;96.88;98925.72;6276277;22;20000;-75
2023/03/14 02:10:45;;;;;;;9.93;1.90;;;;;;;9.13;97.98;98903.84;6275803;22;20313;-76
2023/03/14 02:13:12;;;;;;;11.02;1.77;;;;;;;9.13;97.28;98906.44;6276060;22;20000;-75
2023/03/14 02:15:38;;;;;;;7.90;1.88;;;;;;;9.26;97.96;98926.81;6276407;22;20018;-76
2023/03/14 02:18:05;;;;;;;8.65;2.05;;;;;;;9.24;98.68;98930.44;6276129;22;20004;-76
2023/03/14 02:20:48;;;;;;;8.55;1.83;;;;;;;9.19;99.47;98933.44;6275937;22;20007;-75
2023/03/14 02:23:20;;;;;;;8.20;2.47;;;;;;;8.88;100.00;98894.09;6275952;22;20003;-77
2023/03/14 02:25:57;;;;;;;;;;;;;;;9.07;100.00;98925.00;6276646;22;19996;-75
2023/03/14 02:28:22;;;;;;;7.55;2.30;;;;;;;8.90;100.00;98908.44;6275861;22;19985;-76
2023/03/14 02:30:48;;;;;;;10.63;2.58;;;;;;;8.88;100.00;98907.78;6276342;22;20360;-75
2023/03/14 02:33:17;;;;;;;8.73;2.10;;;;;;;8.88;100.00;98896.66;6275864;22;20003;-76
2023/03/14 02:35:52;;;;;;;11.93;2.85;;;;;;;9.07;100.00;98912.13;6275882;22;20000;-74
2023/03/14 02:38:24;;;;;;;10.57;2.40;;;;;;;9.00;100.00;98892.19;6276431;22;20030;-76
2023/03/14 02:40:50;;;;;;;10.23;2.42;;;;;;;9.03;99.97;98900.47;6275720;22;20103;-77
2023/03/14 02:43:16;;;;;;;11.23;2.58;;;;;;;9.10;100.00;98914.44;6276060;22;20003;-76
2023/03/14 02:45:46;;;;;;;14.43;3.03;;;;;;;9.12;99.68;98912.53;6275746;22;20006;-77
2023/03/14 02:48:35;;;;;;;9.82;2.95;;;;;;;9.18;99.12;98906.06;6275752;22;20026;-77
2023/03/14 02:51:01;;;;;;;10.38;2.08;;;;;;;9.22;99.12;98911.72;6277665;22;20006;-74
2023/03/14 02:53:32;;;;;;;9.50;2.42;;;;;;;9.21;98.85;98905.78;6278187;22;20011;-75
2023/03/14 02:55:58;;;;;;;12.23;2.38;;;;;;;9.27;98.82;98918.13;6277547;22;20422;-76
2023/03/14 02:58:26;;;;;;;13.25;2.47;;;;;;;9.31;98.17;98918.66;6278195;22;20011;-75
2023/03/14 03:00:51;;;;;;;10.18;2.95;;;;;;;9.24;98.20;98900.34;6278029;22;20004;-75
2023/03/14 03:03:16;;;;;;;10.07;2.53;;;;;;;9.16;98.27;98877.06;6277701;22;20012;-76
2023/03/14 03:05:43;;;;;;;8.55;2.20;;;;;;;9.30;98.44;98907.53;6277743;22;20007;-76
2023/03/14 03:08:09;;;;;;;9.38;2.42;;;;;;;9.31;98.04;98910.94;6277638;22;20008;-76
2023/03/14 03:10:35;;;;;;;9.27;2.08;;;;;;;9.27;98.61;98909.59;6277750;22;20007;-77
2023/03/14 03:13:00;;;;;;;11.63;2.70;;;;;;;9.26;97.71;98902.81;6277855;22;20436;-77
2023/03/14 03:15:26;;;;;;;10.52;2.10;;;;;;;9.17;98.00;98892.38;6277554;22;20007;-78
2023/03/14 03:17:52;;;;;;;9.27;2.33;;;;;;;9.31;98.01;98904.00;6250449;22;20078;-76
2023/03/14 03:20:17;;;;;;;7.88;1.83;;;;;;;9.29;97.97;98903.34;6277662;22;20421;-75
2023/03/14 03:22:42;;;;;;;10.05;2.15;;;;;;;9.32;97.90;98905.63;6277398;22;20000;-75
2023/03/14 03:25:09;;;;;;;7.65;2.28;;;;;;;9.32;97.91;98902.25;6250255;22;20016;-76
2023/03/14 03:27:36;;;;;;;10.68;1.77;;;;;;;9.32;98.26;98905.63;6277243;22;19999;-75
2023/03/14 03:30:03;;;;;;;9.93;2.47;;;;;;;9.32;98.21;98899.66;6277525;22;20018;-76
2023/03/14 03:32:29;;;;;;;6.78;1.90;;;;;;;9.18;97.74;98878.53;6277400;22;20011;-76
2023/03/14 03:34:54;;;;;;;8.35;2.13;;;;;;;9.30;97.75;98886.13;6277820;22;20003;-75
2023/03/14 03:37:19;;;;;;;7.38;2.00;;;;;;;9.22;98.08;98881.63;6277429;22;20479;-76
2023/03/14 03:39:45;;;;;;;11.50;2.53;;;;;;;9.21;97.55;98880.00;6277527;22;20000;-75
2023/03/14 03:42:10;;;;;;;9.68;2.28;;;;;;;9.12;97.74;98876.50;6277437;22;20050;-75
2023/03/14 03:44:36;;;;;;;10.43;2.78;;;;;;;9.29;97.35;98898.19;6277875;22;20306;-77
2023/03/14 03:47:01;;;;;;;8.77;2.13;;;;;;;9.29;97.68;98895.59;6277441;22;20027;-76
2023/03/14 03:49:31;;;;;;;10.05;2.28;;;;;;;9.27;98.45;98894.94;6277311;22;20420;-75
2023/03/14 03:51:56;;;;;;;10.35;1.80;;;;;;;9.17;97.70;98873.53;6277350;22;20363;-77
2023/03/14 03:54:22;;;;;;;9.82;1.83;;;;;;;9.24;97.73;98891.81;6277521;22;20031;-76
2023/03/14 03:56:47;;;;;;;11.55;2.25;;;;;;;9.11;97.65;98866.31;6277502;22;20004;-76
2023/03/14 03:59:12;;;;;;;10.43;1.80;;;;;;;9.17;97.78;98876.91;6277363;22;20324;-77
2023/03/14 04:01:38;;;;;;;8.10;1.50;;;;;;;9.22;97.69;98880.81;6249408;22;20018;-77
2023/03/14 04:04:04;;;;;;;8.43;2.15;;;;;;;9.20;97.43;98880.97;6277180;22;20004;-77
2023/03/14 04:06:29;;;;;;;8.20;1.38;;;;;;;9.17;97.16;98878.69;6277246;22;20435;-75
2023/03/14 04:08:55;;;;;;;6.07;1.38;;;;;;;9.16;97.01;98875.28;6277450;22;20003;-76
2023/03/14 04:11:20;;;;;;;7.25;1.60;;;;;;;9.23;96.71;98875.53;6250146;22;20425;-77
2023/03/14 04:13:45;;;;;;;7.18;1.67;;;;;;;9.20;98.43;98886.94;6276908;22;20050;-77
2023/03/14 04:16:16;;;;;;;5.72;1.20;;;;;;;9.13;99.44;98879.88;6277338;22;20003;-77
2023/03/14 04:18:41;;;;;;;5.07;1.10;;;;;;;9.07;100.00;98870.94;6277524;22;20008;-76
2023/03/14 04:21:07;;;;;;;5.55;1.15;;;;;;;9.07;100.00;98877.84;6276829;22;20057;-77
2023/03/14 04:23:33;;;;;;;8.80;1.38;;;;;;;8.87;100.00;98854.66;6277133;22;20332;-76
2023/03/14 04:25:58;;;;;;;4.32;1.30;;;;;;;8.91;100.00;98866.31;6276859;22;20007;-76
2023/03/14 04:28:24;;;;;;;4.93;1.15;;;;;;;8.93;100.00;98880.81;6249643;22;20099;-76
2023/03/14 04:30:49;;;;;;;5.40;1.13;;;;;;;8.92;100.00;98880.00;6277397;22;20000;-76
2023/03/14 04:33:17;;;;;;;7.45;1.45;;;;;;;8.90;100.00;98879.31;6277267;22;20000;-74
2023/03/14 04:35:43;;;;;;;6.50;1.65;;;;;;;8.89;100.00;98878.50;6276876;22;20011;-78
2023/03/14 04:38:08;;;;;;;5.05;1.42;;;;;;;8.59;100.00;98833.09;6276785;22;20049;-74
2023/03/14 04:40:36;;;;;;;7.13;1.42;;;;;;;8.88;100.00;98878.66;6276735;22;20043;-76
2023/03/14 04:43:01;;;;;;;8.55;1.50;;;;;;;8.73;100.00;98846.50;6276439;22;20490;-77
2023/03/14 04:45:26;;;;;;;5.13;1.27;;;;;;;8.79;100.00;98853.72;6277153;22;20000;-77
2023/03/14 04:47:52;;;;;;;5.57;1.63;;;;;;;8.89;100.00;98870.78;6276631;22;20000;-74
2023/03/14 04:50:17;;;;;;;9.07;1.60;;;;;;;8.69;100.00;98852.88;6276936;22;20008;-75
2023/03/14 04:52:42;;;;;;;8.85;1.95;;;;;;;8.78;100.00;98870.91;6276894;22;20039;-76
2023/03/14 04:55:08;;;;;;;7.45;2.03;;;;;;;8.74;100.00;98872.09;6276860;22;20007;-74
2023/03/14 04:57:33;;;;;;;8.02;1.98;;;;;;;8.65;100.00;98870.31;6277238;22;20007;-77
2023/03/14 04:59:58;;;;;;;9.82;2.50;;;;;;;8.40;100.00;98850.25;6276567;22;20468;-76
2023/03/14 05:02:24;;;;;;;6.82;1.85;;;;;;;8.38;100.00;98865.00;6276347;22;20015;-75
2023/03/14 05:04:49;;;;;;;6.93;1.60;;;;;;;8.28;100.00;98867.50;6276978;22;20004;-76
2023/03/14 05:07:14;;;;;;;6.28;1.80;;;;;;;8.25;100.00;98852.31;6276536;22;20483;-77
2023/03/14 05:09:39;;;;;;;6.03;1.75;;;;;;;8.13;100.00;98849.03;6276604;22;20000;-76
2023/03/14 05:12:05;;;;;;;4.22;1.63;;;;;;;8.21;100.00;98866.38;6276465;22;20432;-76
2023/03/14 05:14:31;;;;;;;5.10;1.95;;;;;;;8.17;100.00;98859.88;6276475;22;20023;-77
2023/03/14 05:16:56;;;;;;;8.73;2.00;;;;;;;7.87;100.00;98819.56;6276451;22;20321;-78
2023/03/14 05:19:21;;;;;;;4.55;1.50;;;;;;;7.94;100.00;98829.19;6277057;22;20474;-77
2023/03/14 05:21:46;;;;;;;7.72;1.73;;;;;;;8.13;100.00;98864.44;6276727;22;20027;-76
2023/03/14 05:24:12;;;;;;;6.80;2.05;;;;;;;8.16;100.00;98865.94;6276825;22;20014;-76
2023/03/14 05:26:37;;;;;;;8.85;2.60;;;;;;;8.03;100.00;98833.56;6276380;22;20374;-76
2023/03/14 05:29:02;;;;;;;6.13;1.92;;;;;;;8.17;100.00;98860.69;6276122;22;20004;-75
2023/03/14 05:31:28;;;;;;;6.00;2.30;;;;;;;8.22;100.00;98863.69;6276253;22;20012;-76
2023/03/14 05:33:53;;;;;;;6.30;2.10;;;;;;;8.23;100.00;98869.63;6276173;22;20014;-76
2023/03/14 05:36:18;;;;;;;6.15;2.28;;;;;;;8.13;100.00;98843.88;6276469;22;20008;-75
2023/03/14 05:38:44;;;;;;;6.38;2.38;;;;;;;8.26;100.00;98851.41;6276568;22;20000;-75
2023/03/14 05:41:09;;;;;;;6.03;2.22;;;;;;;8.28;100.00;98845.16;6276274;22;20008;-74
2023/03/14 05:43:34;;;;;;;6.03;2.28;;;;;;;8.30;100.00;98845.84;6275981;22;20413;-76
2023/03/14 05:46:00;;;;;;;5.97;2.25;;;;;;;8.23;100.00;98833.63;6276021;22;20007;-74
2023/03/14 05:48:25;;;;;;;6.47;2.63;;;;;;;8.31;100.00;98844.91;6249367;22;20004;-76
2023/03/14 05:50:59;;;;;;;6.18;2.60;;;;;;;8.26;100.00;98825.69;6276724;22;20050;-76
2023/03/14 05:53:25;;;;;;;6.43;2.65;;;;;;;8.22;100.00;98814.81;6276444;22;20004;-77
2023/03/14 05:55:54;;;;;;;6.20;2.47;;;;;;;8.32;100.00;98833.66;6276385;22;20035;-76
2023/03/14 05:58:20;;;;;;;7.85;2.47;;;;;;;8.13;100.00;98789.09;6275996;22;20007;-75
2023/03/14 06:00:45;;;;;;;9.95;2.88;;;;;;;8.33;100.00;98830.16;6276033;22;20003;-75
2023/03/14 06:03:11;;;;;;;7.50;2.72;;;;;;;8.35;100.00;98817.19;6251862;22;20484;-76
2023/03/14 06:05:36;;;;;;;6.95;3.22;;;;;;;8.40;100.00;98825.34;6245910;23;20004;-75
2023/03/14 06:08:02;;;;;;;7.32;3.28;;;;;;;8.40;100.00;98820.19;6245465;23;20004;-74
2023/03/14 06:10:27;;;;;;;7.40;3.15;;;;;;;8.43;100.00;98824.25;6245314;23;20091;-73
2023/03/14 06:12:53;;;;;;;6.93;2.88;;;;;;;8.27;100.00;98802.41;6245902;23;20012;-74
2023/03/14 06:15:19;;;;;;;7.93;3.53;;;;;;;8.41;100.00;98818.44;6245713;23;20015;-74
2023/03/14 06:17:44;;;;;;;8.35;3.17;;;;;;;8.48;100.00;98832.41;6245434;23;20386;-75
2023/03/14 06:20:10;;;;;;;7.10;3.30;;;;;;;8.46;100.00;98829.97;6245175;23;20008;-77
2023/03/14 06:22:36;;;;;;;7.75;3.47;;;;;;;8.55;100.00;98838.63;6245456;23;20010;-75
2023/03/14 06:25:01;;;;;;;8.85;3.50;;;;;;;8.53;100.00;98833.59;6245055;23;20011;-75
2023/03/14 06:27:27;;;;;;;8.13;3.65;;;;;;;8.59;100.00;98840.81;6244953;23;20035;-74
2023/03/14 06:29:52;;;;;;;8.10;3.38;;;;;;;8.56;100.00;98832.56;6245117;23;20058;-75
2023/03/14 06:32:18;;;;;;;7.80;4.07;;;;;;;8.61;100.00;98838.91;6245152;23;20141;-78
2023/03/14 06:34:43;;;;;;;7.18;3.10;;;;;;;8.62;100.00;98842.28;6245280;23;20005;-77
2023/03/14 06:37:09;;;;;;;7.20;3.65;;;;;;;8.62;100.00;98848.25;6245579;23;20015;-76
2023/03/14 06:39:34;;;;;;;8.90;3.70;;;;;;;8.62;100.00;98847.44;6245349;23;20368;-75
2023/03/14 06:41:59;;;;;;;8.75;3.92;;;;;;;8.62;100.00;98847.44;6245380;23;20000;-75
2023/03/14 06:44:25;;;;;;;8.82;4.07;;;;;;;8.62;100.00;98837.97;6245068;23;20321;-74
2023/03/14 06:46:50;;;;;;;8.60;3.72;;;;;;;8.67;100.00;98853.00;6245233;23;20062;-75
2023/03/14 06:49:15;;;;;;;7.80;4.53;;;;;;;8.74;100.00;98856.66;6245253;23;20004;-75
2023/03/14 06:51:41;;;;;;;7.25;3.58;;;;;;;8.72;100.00;98835.41;6245447;23;20424;-77
2023/03/14 06:54:06;;;;;;;10.43;4.45;;;;;;;8.91;100.00;98855.22;6245025;23;20448;-78
2023/03/14 06:56:31;;;;;;;10.07;4.30;;;;;;;8.80;100.00;98838.13;6245195;23;20004;-76
2023/03/14 06:58:57;;;;;;;8.93;4.50;;;;;;;8.71;100.00;98828.63;6245288;23;20005;-75
2023/03/14 07:01:25;;;;;;;9.15;4.57;;;;;;;8.85;100.00;98855.75;6245970;22;20087;-76
2023/03/14 07:03:50;;;;;;;9.63;4.40;;;;;;;8.89;100.00;98862.25;6248613;22;20008;-75
2023/03/14 07:06:16;;;;;;;8.98;4.70;;;;;;;8.88;100.00;98861.44;6275679;22;20023;-74
2023/03/14 07:08:53;;;;;;;10.50;4.93;;;;;;;8.88;100.00;98873.50;6274799;22;20058;-74
2023/03/14 07:11:18;;;;;;;10.05;5.22;;;;;;;8.72;100.00;98848.28;6276623;22;20014;-77
2023/03/14 07:13:43;;;;;;;9.43;4.93;;;;;;;8.77;100.00;98863.31;6275671;22;20012;-76
2023/03/14 07:16:09;;;;;;;11.07;5.70;;;;;;;8.72;100.00;98858.56;6275158;22;20011;-78
2023/03/14 07:18:34;;;;;;;10.35;5.10;;;;;;;8.73;100.00;98867.09;6275934;22;20076;-76
2023/03/14 07:21:00;;;;;;;11.75;5.63;;;;;;;8.66;100.00;98938.88;6276100;22;20416;-76
2023/03/14 07:23:25;;;;;;;7.53;2.65;;;;;;;8.50;100.00;98982.25;6275288;22;20010;-77
2023/03/14 07:25:51;;;;;;;4.60;2.08;;;;;;;8.03;100.00;98967.22;6275715;22;20007;-78
2023/03/14 07:28:17;;;;;;;4.88;1.60;;;;;;;7.80;100.00;98988.03;6275396;22;20372;-75
2023/03/14 07:30:42;;;;;;;3.35;1.10;;;;;;;7.49;100.00;99003.34;6275187;22;20010;-73
2023/03/14 07:33:07;;;;;;;3.72;1.00;;;;;;;7.12;100.00;98985.69;6248502;22;20004;-77
2023/03/14 07:35:33;;;;;;;4.45;0.77;;;;;;;7.06;100.00;99011.81;6248524;22;20004;-74
2023/03/14 07:37:58;;;;;;;1.75;1.00;;;;;;;7.11;100.00;99034.56;6277059;22;20416;-77
2023/03/14 07:40:23;;;;;;;3.08;0.70;;;;;;;6.97;100.00;99037.38;6277318;22;20197;-75
2023/03/14 07:42:49;;;;;;;2.58;1.00;;;;;;;6.91;100.00;99048.94;6277364;22;20010;-78
2023/03/14 07:45:15;;;;;;;3.47;0.90;;;;;;;6.80;100.00;99051.50;6276978;22;20132;-75
2023/03/14 07:47:40;;;;;;;3.63;1.08;;;;;;;6.76;100.00;99050.09;6277190;22;20078;-75
2023/03/14 07:50:07;;;;;;;3.20;1.17;;;;;;;6.84;100.00;99078.53;6277007;22;20078;-77
2023/03/14 07:52:32;;;;;;;6.15;1.90;;;;;;;6.72;100.00;99066.66;6277194;22;20000;-77
2023/03/14 07:54:58;;;;;;;4.25;1.42;;;;;;;6.73;100.00;99076.78;6277225;22;20007;-80
2023/03/14 07:57:24;;;;;;;4.78;1.58;;;;;;;6.78;100.00;99084.13;6276930;22;20088;-79
2023/03/14 07:59:50;;;;;;;2.40;1.42;;;;;;;6.63;100.00;99070.72;6276758;22;20011;-79
2023/03/14 08:02:16;;;;;;;4.85;1.77;;;;;;;6.53;100.00;99060.31;6276549;22;20457;-75
2023/03/14 08:04:41;;;;;;;7.35;1.80;;;;;;;6.80;100.00;99116.47;6249795;22;20007;-77
2023/03/14 08:07:06;;;;;;;3.50;1.73;;;;;;;6.81;100.00;99120.66;6276822;22;20003;-76
2023/03/14 08:09:32;;;;;;;6.00;1.90;;;;;;;6.63;100.00;99114.31;6277022;22;20000;-78
2023/03/14 08:11:57;;;;;;;6.00;1.90;;;;;;;6.63;100.00;99134.03;6277375;22;20003;-77
2023/03/14 08:14:23;;;;;;;5.35;1.65;;;;;;;6.71;100.00;99152.22;6276768;22;20004;-78
2023/03/14 08:16:50;;;;;;;3.03;1.20;;;;;;;6.64;100.00;99169.81;6276462;22;20433;-78
2023/03/14 08:19:15;;;;;;;2.60;1.38;;;;;;;6.60;100.00;99163.28;6276987;22;20060;-79
2023/03/14 08:21:41;;;;;;;5.05;1.40;;;;;;;6.66;100.00;99174.81;6276681;22;20095;-77
2023/03/14 08:24:06;;;;;;;2.72;1.50;;;;;;;6.78;100.00;99184.19;6277396;22;20008;-80
2023/03/14 08:26:31;;;;;;;4.50;1.17;;;;;;;6.84;100.00;99191.44;6277205;22;20302;-80
2023/03/14 08:28:57;;;;;;;5.90;1.88;;;;;;;6.73;100.00;99176.03;6249906;22;19999;-78
2023/03/14 08:31:22;;;;;;;5.28;1.55;;;;;;;6.87;100.00;99201.47;6276835;22;20003;-79
2023/03/14 08:33:47;;;;;;;4.00;1.27;;;;;;;6.85;100.00;99223.84;6249774;22;20012;-77
2023/03/14 08:36:13;;;;;;;4.70;1.27;;;;;;;6.89;100.00;99232.97;6277262;22;20409;-78
2023/03/14 08:38:42;;;;;;;3.88;1.35;;;;;;;6.93;100.00;99234.38;6277416;22;20425;-78
2023/03/14 08:41:08;;;;;;;5.70;1.60;;;;;;;6.82;100.00;99222.34;6276744;22;20003;-79
2023/03/14 08:43:33;;;;;;;4.90;1.70;;;;;;;6.83;100.00;99234.25;6276789;22;19999;-79
2023/03/14 08:46:02;;;;;;;4.68;1.45;;;;;;;6.76;100.00;99239.91;6277005;22;20018;-77
2023/03/14 08:48:29;;;;;;;8.73;1.75;;;;;;;6.66;100.00;99238.94;6275443;22;20003;-81
2023/03/14 08:51:16;;;;;;;6.40;1.75;;;;;;;6.81;100.00;99263.50;6277301;22;20003;-77
2023/03/14 08:53:42;;;;;;;5.20;1.70;;;;;;;6.81;100.00;99263.50;6277129;22;20022;-79
2023/03/14 08:56:11;;;;;;;7.28;1.80;;;;;;;7.00;100.00;99297.16;6277030;22;20030;-80
2023/03/14 08:58:37;;;;;;;6.55;1.77;;;;;;;7.03;100.00;99296.94;6276830;22;19999;-80
2023/03/14 09:01:08;;;;;;;4.20;1.63;;;;;;;6.94;100.00;99286.53;6276827;22;20007;-83
2023/03/14 09:03:34;;;;;;;6.70;1.80;;;;;;;6.91;100.00;99297.84;6276380;22;20368;-77
2023/03/14 09:06:07;;;;;;;7.53;1.77;;;;;;;6.99;100.00;99334.03;6276671;22;20236;-80
2023/03/14 09:08:33;;;;;;;5.00;1.30;;;;;;;6.76;100.00;99337.41;6276953;22;19999;-79
2023/03/14 09:10:58;;;;;;;4.13;1.40;;;;;;;6.60;100.00;99364.16;6276442;22;20455;-78
2023/03/14 09:13:23;;;;;;;2.72;1.00;;;;;;;6.54;100.00;99362.00;6276621;22;20027;-76
2023/03/14 09:15:56;;;;;;;4.50;1.50;;;;;;;6.38;100.00;99348.59;6276483;22;19999;-78
2023/03/14 09:18:22;;;;;;;5.10;1.67;;;;;;;6.59;100.00;99359.13;6276373;22;20444;-78
2023/03/14 09:20:48;;;;;;;2.63;1.40;;;;;;;6.71;100.00;99378.78;6276393;22;20007;-78
2023/03/14 09:23:13;;;;;;;6.85;1.63;;;;;;;6.84;100.00;99394.94;6276506;22;20074;-78
2023/03/14 09:25:38;;;;;;;4.95;1.40;;;;;;;6.89;100.00;99417.75;6276994;22;20320;-77
2023/03/14 09:28:04;;;;;;;4.70;1.40;;;;;;;6.75;100.00;99433.25;6276270;22;20012;-74
2023/03/14 09:30:30;;;;;;;2.95;1.10;;;;;;;6.43;100.00;99436.28;6276155;22;20007;-79
2023/03/14 09:32:58;;;;;;;4.25;0.95;;;;;;;6.25;100.00;99451.16;6274520;22;20075;-76
2023/03/14 09:35:24;;;;;;;3.85;1.05;;;;;;;6.09;100.00;99475.34;6249205;22;19999;-76
2023/03/14 09:37:50;;;;;;;1.38;0.50;;;;;;;5.79;100.00;99475.56;6276407;22;19996;-76
2023/03/14 09:40:18;;;;;;;4.25;1.00;;;;;;;5.70;100.00;99507.72;6276446;22;20054;-77
2023/03/14 09:42:43;;;;;;;2.67;0.80;;;;;;;5.58;100.00;99534.13;6276371;22;20329;-77
2023/03/14 09:45:19;;;;;;;2.90;0.70;;;;;;;5.44;100.00;99514.50;6276610;22;20007;-77
2023/03/14 09:47:45;;;;;;;2.13;0.50;;;;;;;5.54;100.00;99554.00;6276505;22;20003;-79
2023/03/14 09:50:15;;;;;;;2.50;0.50;;;;;;;5.48;100.00;99549.22;6276385;22;20083;-80
2023/03/14 09:52:44;;;;;;;3.65;0.70;;;;;;;5.59;100.00;99557.06;6276204;22;20458;-79
2023/03/14 09:55:21;;;;;;;5.28;0.70;;;;;;;5.69;100.00;99570.13;6276279;22;20363;-76
2023/03/14 09:57:48;;;;;;;2.15;0.68;;;;;;;5.87;100.00;99575.81;6248841;22;20337;-80
2023/03/14 10:00:23;;;;;;;4.97;1.00;;;;;;;6.10;100.00;99582.91;6248675;22;20003;-79
2023/03/14 10:02:55;;;;;;;7.00;1.30;;;;;;;6.14;100.00;99580.97;6275788;22;20463;-80
2023/03/14 10:05:24;;;;;;;3.00;0.90;;;;;;;6.31;100.00;99593.50;6276165;22;20306;-79
2023/03/14 10:07:50;;;;;;;6.57;1.10;;;;;;;6.51;99.45;99623.00;6276430;22;20031;-77
2023/03/14 10:10:25;;;;;;;4.57;1.00;;;;;;;6.56;98.00;99644.00;6276292;22;19999;-77
2023/03/14 10:12:59;;;;;;;7.57;1.10;;;;;;;6.58;96.17;99655.00;6276120;22;20000;-80
2023/03/14 10:15:32;;;;;;;4.45;1.13;;;;;;;6.45;95.42;99675.50;6249142;22;20049;-80
2023/03/14 10:18:00;;;;;;;5.63;1.10;;;;;;;6.26;94.93;99659.63;6275807;22;20010;-79
2023/03/14 10:20:32;;;;;;;5.65;1.08;;;;;;;6.48;93.26;99690.66;6276103;22;20054;-77
2023/03/14 10:22:58;;;;;;;9.63;1.30;;;;;;;6.44;92.60;99706.34;6276243;22;20043;-79
2023/03/14 10:25:32;;;;;;;5.68;1.20;;;;;;;6.29;94.51;99705.56;6276170;22;20004;-77
2023/03/14 10:27:58;;;;;;;7.25;1.92;;;;;;;6.24;93.80;99718.69;6276000;22;20004;-77
2023/03/14 10:30:37;;;;;;;10.23;1.42;;;;;;;6.09;95.02;99736.75;6276479;22;20027;-77
2023/03/14 10:33:15;;;;;;;7.85;1.27;;;;;;;6.15;96.82;99750.03;6276184;22;20007;-78
2023/03/14 10:35:40;;;;;;;7.40;1.48;;;;;;;6.31;97.67;99757.59;6275932;22;20104;-78
2023/03/14 10:38:13;;;;;;;8.82;1.58;;;;;;;6.52;97.01;99758.81;6276316;22;20004;-77
2023/03/14 10:40:41;;;;;;;11.95;2.05;;;;;;;6.75;93.85;99765.03;6275760;22;20091;-79
2023/03/14 10:43:15;;;;;;;10.68;2.17;;;;;;;6.88;91.60;99757.38;6248803;22;20008;-77
2023/03/14 10:45:43;;;;;;;7.22;1.33;;;;;;;7.06;92.14;99784.41;6276290;22;20008;-79
2023/03/14 10:48:14;;;;;;;13.48;2.10;;;;;;;7.30;93.06;99799.16;6275657;22;20008;-79
2023/03/14 10:51:08;;;;;;;10.57;2.10;;;;;;;7.36;87.82;99788.47;6275987;22;20423;-80
2023/03/14 10:53:40;;;;;;;10.77;1.92;;;;;;;7.64;87.18;99819.09;6182566;23;20005;-79
2023/03/14 10:56:06;;;;;;;11.88;2.33;;;;;;;7.75;87.53;99824.34;6182312;23;20012;-77
2023/03/14 10:58:37;;;;;;;12.77;2.85;;;;;;;7.84;86.33;99829.78;6157225;23;20005;-80
2023/03/14 11:01:17;;;;;;;14.95;2.50;;;;;;;7.73;83.36;99836.47;6181815;23;20013;-80
2023/03/14 11:03:52;;;;;;;13.18;2.78;;;;;;;7.85;82.04;99855.38;6181792;23;20051;-75
2023/03/14 11:07:12;;;;;;;14.15;2.03;;;;;;;7.78;83.98;99866.19;6182508;23;20017;-78
2023/03/14 11:09:44;;;;;;;15.07;3.13;;;;;;;7.93;84.03;99867.72;6065266;23;20011;-78
2023/03/14 11:12:37;;;;;;;12.38;2.42;;;;;;;7.85;84.29;99877.69;6066751;23;20007;-77
2023/03/14 11:15:19;;;;;;;16.27;2.78;;;;;;;7.65;82.35;99891.84;6066791;23;20006;-77
2023/03/14 11:18:06;;;;;;;14.85;2.38;;;;;;;7.36;84.85;99906.59;6066696;23;20085;-76
2023/03/14 11:20:49;;;;;;;11.20;2.40;;;;;;;6.83;88.40;99944.19;6066313;23;20356;-79
2023/03/14 11:23:22;;;;;;;12.68;2.40;;;;;;;5.96;95.61;99937.41;6066516;23;20075;-76
2023/03/14 11:26:37;;;;;;;16.70;2.85;;;;;;;5.40;96.71;99948.25;6066776;23;20085;-78
2023/03/14 11:29:19;;;;;;;13.43;2.53;;;;;;;4.76;98.73;99916.78;6059943;23;20017;-75
2023/03/14 11:31:46;;;;;;;13.30;2.55;;;;;;;4.93;99.11;99948.31;6122457;23;20013;-77
2023/03/14 11:34:14;;;;;;;15.75;3.60;;;;;;;5.41;95.92;99986.59;6124043;23;20002;-77
2023/03/14 11:36:46;;;;;;;15.80;3.25;;;;;;;5.69;91.82;99978.19;6124524;23;20067;-76
2023/03/14 11:39:17;;;;;;;17.23;3.05;;;;;;;5.82;92.23;99964.72;6124771;23;20013;-78